Time;durP1;ratioP1;P1;durP2;ratioP2;P2;SDS_P1;SDS_P2;PMS_P1;PMS_P2;Temp;Humidity;BMP_temperature;BMP_pressure;BME280_temperature;BME280_humidity;BME280_pressure;Samples;Min_cycle;Max_cycle;Signal;HPM_P1;HPM_P2
2021/08/02 00:01:40;;;;;;;3.03;1.33;;;;;;;19.58;56.00;97536.06;8284047;28;20398;-88
2021/08/02 00:05:55;;;;;;;3.23;1.50;;;;;;;19.50;55.98;97541.19;8277788;28;20218;-89
2021/08/02 00:10:26;;;;;;;3.43;1.60;;;;;;;19.40;56.10;97538.53;8285141;28;20236;-89
2021/08/02 00:14:36;;;;;;;3.27;1.20;;;;;;;19.43;55.88;97535.63;8282822;28;20207;-89
2021/08/02 00:18:54;;;;;;;2.50;1.13;;;;;;;19.42;55.97;97538.38;8283547;28;20644;-90
2021/08/02 00:23:14;;;;;;;2.77;1.60;;;;;;;19.52;55.93;97542.69;8284166;28;20241;-90
2021/08/02 00:27:37;;;;;;;1.87;1.10;;;;;;;19.48;55.91;97545.75;8284616;28;20268;-90
2021/08/02 00:31:49;;;;;;;2.43;1.30;;;;;;;19.51;55.22;97533.16;8284095;28;20308;-90
2021/08/02 00:36:04;;;;;;;3.60;1.30;;;;;;;19.54;55.59;97535.50;8282019;28;20206;-90
2021/08/02 00:40:55;;;;;;;3.10;1.20;;;;;;;19.52;55.22;97540.06;8283536;28;20205;-90
2021/08/02 00:45:23;;;;;;;3.60;1.20;;;;;;;19.52;55.26;97541.88;8286072;28;20209;-92
2021/08/02 00:49:40;;;;;;;3.40;1.40;;;;;;;19.32;55.95;97546.22;8290065;28;20205;-88
2021/08/02 00:53:55;;;;;;;2.43;1.27;;;;;;;19.45;55.45;97552.06;8288827;28;20202;-88
2021/08/02 00:58:23;;;;;;;2.73;1.00;;;;;;;19.56;55.40;97551.13;8288678;28;20397;-89
2021/08/02 01:02:41;;;;;;;4.07;1.50;;;;;;;19.54;55.85;97555.69;8276027;28;20206;-87
2021/08/02 01:06:57;;;;;;;3.97;1.30;;;;;;;19.45;55.73;97552.06;8256980;28;20230;-88
2021/08/02 01:11:08;;;;;;;4.50;1.70;;;;;;;19.48;56.10;97564.13;8257076;28;20210;-88
2021/08/02 01:15:25;;;;;;;4.83;1.37;;;;;;;19.46;56.45;97566.06;8256915;28;20203;-88
2021/08/02 01:19:50;;;;;;;3.63;1.70;;;;;;;19.47;56.58;97565.91;8259945;28;20333;-87
2021/08/02 01:24:12;;;;;;;2.83;1.60;;;;;;;19.34;57.25;97567.91;8257940;28;20233;-88
2021/08/02 01:29:11;;;;;;;3.87;1.67;;;;;;;19.30;57.50;97574.41;8256628;28;20214;-87
2021/08/02 01:33:33;;;;;;;8.23;1.77;;;;;;;19.06;58.42;97570.31;8256725;28;20447;-86
2021/08/02 01:37:54;;;;;;;6.57;1.63;;;;;;;19.33;57.79;97580.22;8256293;28;20237;-85
2021/08/02 01:42:20;;;;;;;5.03;1.70;;;;;;;19.22;58.09;97584.75;8255625;28;20289;-86
2021/08/02 01:46:48;;;;;;;3.87;1.70;;;;;;;19.23;58.61;97589.00;8254324;28;20391;-86
2021/08/02 01:51:10;;;;;;;4.23;1.53;;;;;;;19.26;58.23;97594.84;8255523;28;20209;-86
2021/08/02 01:55:32;;;;;;;4.83;2.23;;;;;;;19.19;59.03;97598.97;8255159;28;20201;-87
2021/08/02 01:59:55;;;;;;;3.63;1.80;;;;;;;19.32;58.40;97598.72;8255221;28;20253;-87
2021/08/02 02:04:08;;;;;;;4.10;2.10;;;;;;;19.25;58.77;97600.25;8278597;28;20218;-86
2021/08/02 02:08:20;;;;;;;6.43;2.20;;;;;;;19.32;58.58;97606.59;8286747;28;20220;-86
2021/08/02 02:12:37;;;;;;;2.87;2.07;;;;;;;19.26;58.61;97610.59;8287032;28;20201;-86
2021/08/02 02:17:01;;;;;;;6.23;2.20;;;;;;;19.29;58.71;97605.09;8286983;28;20532;-87
2021/08/02 02:21:22;;;;;;;4.67;2.27;;;;;;;19.10;59.55;97611.06;8285588;28;20420;-86
2021/08/02 02:25:36;;;;;;;5.57;2.20;;;;;;;19.17;59.12;97616.63;8286965;28;20225;-87
2021/08/02 02:30:00;;;;;;;5.03;2.13;;;;;;;19.16;59.34;97616.78;8286471;28;20208;-86
2021/08/02 02:34:17;;;;;;;6.40;2.17;;;;;;;19.22;58.74;97622.31;8286475;28;20501;-85
2021/08/02 02:38:35;;;;;;;5.07;2.00;;;;;;;19.06;59.64;97620.16;8286160;28;20230;-84
2021/08/02 02:42:54;;;;;;;3.10;2.00;;;;;;;19.11;59.40;97625.88;8286139;28;20524;-85
2021/08/02 02:47:10;;;;;;;8.17;2.50;;;;;;;19.04;59.54;97632.59;8286156;28;20237;-86
2021/08/02 02:51:35;;;;;;;4.47;2.33;;;;;;;19.14;59.15;97632.66;8286313;28;20193;-83
2021/08/02 02:55:53;;;;;;;5.40;2.37;;;;;;;19.12;59.34;97643.25;8283758;28;20201;-83
2021/08/02 03:00:01;;;;;;;5.03;2.60;;;;;;;19.04;59.67;97647.47;8282371;28;20245;-83
2021/08/02 03:04:23;;;;;;;5.53;2.40;;;;;;;19.06;59.43;97645.59;8284122;28;20435;-84
2021/08/02 03:08:43;;;;;;;4.67;2.47;;;;;;;19.00;59.60;97646.09;8283887;28;20501;-84
2021/08/02 03:12:58;;;;;;;6.27;3.03;;;;;;;18.95;59.91;97655.19;8284402;28;20496;-84
2021/08/02 03:17:23;;;;;;;6.23;2.73;;;;;;;18.90;60.06;97652.09;8284921;28;20527;-83
2021/08/02 03:21:38;;;;;;;6.17;3.00;;;;;;;18.93;59.73;97654.47;8283523;28;20562;-83
2021/08/02 03:26:02;;;;;;;6.73;3.17;;;;;;;18.92;59.73;97667.72;8284622;28;20524;-84
2021/08/02 03:30:15;;;;;;;5.93;3.60;;;;;;;18.87;59.92;97662.03;8284866;28;20213;-84
2021/08/02 03:34:38;;;;;;;5.90;3.10;;;;;;;18.92;59.58;97668.56;8284327;28;20202;-84
2021/08/02 03:38:56;;;;;;;5.90;3.43;;;;;;;18.80;59.96;97666.94;8284775;28;20532;-82
2021/08/02 03:43:14;;;;;;;4.87;4.17;;;;;;;18.85;59.55;97661.31;8284410;28;20202;-82
2021/08/02 03:47:47;;;;;;;6.03;3.73;;;;;;;18.85;59.52;97664.78;8283184;28;20320;-83
2021/08/02 03:52:02;;;;;;;6.77;4.00;;;;;;;18.85;59.45;97674.41;8284294;28;20208;-83
2021/08/02 03:56:21;;;;;;;9.07;4.13;;;;;;;18.76;59.70;97674.19;8283598;28;20268;-84
2021/08/02 04:00:36;;;;;;;4.07;3.57;;;;;;;18.81;59.45;97678.25;8285887;28;20286;-85
2021/08/02 04:04:57;;;;;;;7.60;4.30;;;;;;;18.73;59.84;97679.72;8285723;28;20249;-84
2021/08/02 04:09:03;;;;;;;5.43;4.07;;;;;;;18.80;59.87;97673.97;8265558;28;20210;-84
2021/08/02 04:13:10;;;;;;;6.03;4.10;;;;;;;18.80;59.73;97674.81;8265292;28;20398;-84
2021/08/02 04:17:22;;;;;;;8.10;3.73;;;;;;;18.78;59.31;97681.13;8284316;28;20209;-83
2021/08/02 04:21:35;;;;;;;6.60;3.63;;;;;;;18.78;59.42;97687.19;8287766;28;20592;-84
2021/08/02 04:25:41;;;;;;;5.60;4.20;;;;;;;18.60;59.90;97686.06;8289105;28;20206;-84
2021/08/02 04:29:53;;;;;;;7.00;4.20;;;;;;;18.71;59.21;97686.84;8288373;28;20205;-84
2021/08/02 04:34:15;;;;;;;7.77;4.60;;;;;;;18.79;59.07;97686.25;8290948;28;20443;-91
2021/08/02 04:38:28;;;;;;;4.83;4.17;;;;;;;18.77;59.17;97701.25;8289516;28;20249;-86
2021/08/02 04:42:45;;;;;;;6.40;4.40;;;;;;;18.72;59.29;97704.28;8292559;28;20401;-86
2021/08/02 04:46:50;;;;;;;5.53;4.40;;;;;;;18.72;59.52;97706.06;8289244;28;20560;-86
2021/08/02 04:50:59;;;;;;;7.03;3.87;;;;;;;18.77;59.35;97722.25;8290046;28;20392;-86
2021/08/02 04:55:09;;;;;;;5.27;3.90;;;;;;;18.73;59.52;97723.44;8288706;28;20214;-83
2021/08/02 04:59:24;;;;;;;8.87;4.30;;;;;;;18.76;59.29;97728.47;8289211;28;20226;-84
2021/08/02 05:03:40;;;;;;;7.57;4.13;;;;;;;18.82;59.20;97719.28;8288854;28;20202;-83
2021/08/02 05:07:59;;;;;;;4.40;3.67;;;;;;;18.87;58.81;97723.19;8288244;28;20201;-84
2021/08/02 05:12:10;;;;;;;6.07;4.17;;;;;;;18.84;58.94;97722.63;8287170;28;20202;-84
2021/08/02 05:16:37;;;;;;;4.97;4.13;;;;;;;19.00;58.71;97732.69;8288965;28;20384;-86
2021/08/02 05:20:54;;;;;;;9.40;4.13;;;;;;;19.03;58.37;97735.88;8286130;28;20233;-84
2021/08/02 05:25:11;;;;;;;5.90;3.40;;;;;;;19.20;58.39;97738.91;8288515;28;20284;-83
2021/08/02 05:29:33;;;;;;;5.93;3.97;;;;;;;19.33;58.13;97747.44;8288765;28;20512;-84
2021/08/02 05:33:49;;;;;;;9.73;4.50;;;;;;;19.57;57.88;97744.50;8286091;28;20312;-84
2021/08/02 05:38:09;;;;;;;9.93;4.07;;;;;;;19.63;57.64;97743.16;8287833;28;20234;-84
2021/08/02 05:42:27;;;;;;;5.43;3.77;;;;;;;19.55;57.32;97735.94;8287540;28;20201;-83
2021/08/02 05:46:48;;;;;;;6.00;3.67;;;;;;;19.43;57.80;97748.31;8288177;28;20201;-85
2021/08/02 05:50:59;;;;;;;9.17;3.60;;;;;;;19.43;57.13;97745.69;8287587;28;20209;-86
2021/08/02 05:55:15;;;;;;;5.73;3.40;;;;;;;19.58;57.02;97743.56;8287729;28;20202;-85
2021/08/02 05:59:35;;;;;;;4.80;3.00;;;;;;;19.52;58.26;97760.66;8287547;28;20261;-85
2021/08/02 06:03:59;;;;;;;5.93;3.73;;;;;;;19.60;57.02;97751.31;8286727;28;20218;-86
2021/08/02 06:12:48;;;;;;;5.73;3.30;;;;;;;19.66;56.63;97762.13;8287250;28;20477;-87
2021/08/02 06:17:15;;;;;;;5.57;3.33;;;;;;;19.71;56.65;97761.75;8287410;28;20212;-84
2021/08/02 06:21:30;;;;;;;8.93;3.10;;;;;;;19.77;56.40;97766.50;8286008;28;20222;-83
2021/08/02 06:25:57;;;;;;;5.93;3.03;;;;;;;19.89;56.32;97762.81;8283588;28;20198;-84
2021/08/02 06:30:05;;;;;;;4.00;2.70;;;;;;;19.81;56.03;97775.78;8287317;28;20207;-89
2021/08/02 06:34:12;;;;;;;4.93;2.90;;;;;;;19.80;56.93;97773.28;8276088;28;20281;-84
2021/08/02 06:38:20;;;;;;;6.10;3.00;;;;;;;19.66;56.99;97770.00;8276777;28;20228;-92
2021/08/02 06:42:31;;;;;;;4.10;2.73;;;;;;;19.72;56.66;97776.56;8273757;28;20206;-94
2021/08/02 06:46:38;;;;;;;4.30;2.47;;;;;;;19.77;56.05;97776.19;8288863;28;20209;-94
2021/08/02 06:50:54;;;;;;;6.03;2.53;;;;;;;19.85;56.40;97787.69;8271751;28;20195;-86
2021/08/02 06:55:04;;;;;;;5.03;2.50;;;;;;;20.00;55.59;97784.72;8281037;28;20209;-89
2021/08/02 06:59:17;;;;;;;4.70;2.50;;;;;;;19.89;55.73;97781.22;8278998;28;20226;-92
2021/08/02 07:03:31;;;;;;;4.50;2.90;;;;;;;19.85;55.87;97782.44;8279382;28;20583;-93
2021/08/02 07:07:42;;;;;;;4.60;2.63;;;;;;;19.94;55.82;97780.00;8273973;28;20210;-93
2021/08/02 07:11:46;;;;;;;4.83;2.90;;;;;;;19.97;56.32;97785.84;8264628;28;20387;-96
2021/08/02 07:16:01;;;;;;;5.40;2.80;;;;;;;20.25;55.13;97786.88;8269484;28;20261;-93
2021/08/02 07:20:13;;;;;;;5.90;2.90;;;;;;;20.06;54.92;97787.66;8263977;28;20222;-96
2021/08/02 07:24:36;;;;;;;6.13;3.03;;;;;;;20.26;55.61;97791.19;8269636;28;20230;-91
2021/08/02 07:28:43;;;;;;;6.13;3.13;;;;;;;20.62;55.01;97798.66;8301013;28;20205;-89
2021/08/02 07:32:52;;;;;;;5.30;2.77;;;;;;;20.79;53.90;97798.00;8303331;28;20268;-89
2021/08/02 07:37:09;;;;;;;6.97;2.80;;;;;;;20.86;53.72;97791.22;8256287;28;20199;-90
2021/08/02 07:41:37;;;;;;;5.03;3.20;;;;;;;20.96;53.11;97795.66;8249986;28;20234;-91
2021/08/02 07:45:47;;;;;;;5.13;3.07;;;;;;;20.88;53.54;97798.97;8252550;28;20203;-92
2021/08/02 07:49:50;;;;;;;7.90;3.00;;;;;;;21.12;53.16;97800.38;8265881;28;20203;-90
2021/08/02 07:53:55;;;;;;;4.53;2.87;;;;;;;21.25;52.54;97793.88;8290999;28;20206;-91
2021/08/02 07:58:01;;;;;;;7.33;3.67;;;;;;;21.03;52.88;97794.97;8297370;28;20209;-92
2021/08/02 08:02:05;;;;;;;4.00;2.80;;;;;;;21.09;53.01;97804.09;8297258;28;20252;-90
2021/08/02 08:06:08;;;;;;;4.80;2.80;;;;;;;21.16;53.04;97807.03;8298413;28;20228;-90
2021/08/02 08:10:12;;;;;;;6.83;3.00;;;;;;;20.87;52.91;97802.59;8267505;28;20208;-90
2021/08/02 08:14:16;;;;;;;6.50;3.07;;;;;;;21.28;52.93;97809.41;8267032;28;20204;-88
2021/08/02 08:18:23;;;;;;;4.70;2.70;;;;;;;21.16;52.63;97804.41;8269388;28;20208;-90
2021/08/02 08:22:27;;;;;;;8.27;2.70;;;;;;;21.20;52.83;97811.88;8266328;28;20261;-93
2021/08/02 08:26:31;;;;;;;3.33;2.30;;;;;;;21.17;53.24;97813.94;8268520;28;20204;-92
2021/08/02 08:30:35;;;;;;;5.47;2.40;;;;;;;21.21;53.23;97810.06;8267218;28;20198;-93
2021/08/02 08:34:38;;;;;;;4.07;2.33;;;;;;;21.24;53.01;97813.25;8267523;28;20202;-91
2021/08/02 08:38:43;;;;;;;6.00;2.13;;;;;;;21.38;51.33;97811.16;8266386;28;20208;-92
2021/08/02 08:42:47;;;;;;;6.07;2.83;;;;;;;21.42;51.69;97813.41;8282605;28;20502;-93
2021/08/02 08:46:51;;;;;;;6.27;2.30;;;;;;;21.61;52.08;97823.13;8331772;28;20230;-92
2021/08/02 08:50:56;;;;;;;4.73;2.17;;;;;;;21.88;51.01;97816.25;8330957;28;20203;-92
2021/08/02 08:54:59;;;;;;;6.67;2.10;;;;;;;21.86;50.22;97808.50;8331101;28;20209;-89
2021/08/02 08:59:02;;;;;;;3.50;1.90;;;;;;;21.96;49.75;97811.09;8331369;28;20239;-93
2021/08/02 09:03:11;;;;;;;3.17;1.80;;;;;;;21.84;49.73;97807.81;8331038;28;20605;-90
2021/08/02 09:07:16;;;;;;;3.97;1.80;;;;;;;22.05;49.23;97807.59;8320001;28;20240;-92
2021/08/02 09:11:20;;;;;;;4.83;2.13;;;;;;;22.83;47.27;97801.94;8298849;28;20197;-91
2021/08/02 09:15:35;;;;;;;3.60;1.70;;;;;;;22.67;46.90;97808.84;8300074;28;20204;-90
2021/08/02 09:19:41;;;;;;;5.73;2.10;;;;;;;22.34;46.49;97806.69;8301024;28;20232;-94
2021/08/02 09:23:48;;;;;;;5.37;1.80;;;;;;;23.23;45.99;97797.25;8300157;28;20270;-92
2021/08/02 09:27:52;;;;;;;2.60;1.53;;;;;;;23.03;46.43;97801.84;8301158;28;20208;-91
2021/08/02 09:31:56;;;;;;;2.83;1.73;;;;;;;22.39;45.90;97807.06;8306897;28;20208;-91
2021/08/02 09:36:02;;;;;;;2.50;1.77;;;;;;;22.32;46.81;97807.81;8301790;28;20208;-93
2021/08/02 09:40:06;;;;;;;3.17;1.83;;;;;;;22.43;47.38;97807.63;8299725;28;20424;-91
2021/08/02 09:44:18;;;;;;;3.67;1.60;;;;;;;22.74;46.37;97808.13;8299686;28;20202;-90
2021/08/02 09:48:27;;;;;;;3.63;1.80;;;;;;;22.20;47.78;97796.56;8298978;28;20212;-91
2021/08/02 09:52:32;;;;;;;2.80;1.67;;;;;;;23.16;45.36;97804.94;8298446;28;20208;-91
2021/08/02 09:56:36;;;;;;;6.97;1.80;;;;;;;23.40;43.87;97793.75;8298722;28;20273;-92
2021/08/02 10:00:40;;;;;;;4.23;1.60;;;;;;;22.88;44.40;97795.38;8297804;28;20239;-90
2021/08/02 10:04:43;;;;;;;2.63;1.40;;;;;;;24.13;43.68;97791.75;8297364;28;20221;-92
2021/08/02 10:08:49;;;;;;;4.60;1.50;;;;;;;23.38;42.66;97789.56;8299485;28;20201;-91
2021/08/02 10:12:56;;;;;;;2.97;1.43;;;;;;;23.16;44.24;97790.91;8300760;28;20201;-91
2021/08/02 10:17:05;;;;;;;2.10;1.40;;;;;;;23.37;43.21;97780.00;8298601;28;20205;-91
2021/08/02 10:21:12;;;;;;;2.60;1.50;;;;;;;22.82;43.95;97779.16;8298710;28;20256;-92
2021/08/02 10:25:19;;;;;;;2.03;1.30;;;;;;;22.58;44.41;97790.31;8298606;28;20237;-91
2021/08/02 10:29:23;;;;;;;2.83;1.63;;;;;;;22.86;45.13;97779.69;8290940;28;20195;-91
2021/08/02 10:33:34;;;;;;;4.57;1.70;;;;;;;23.97;42.27;97782.75;8266559;28;20306;-93
2021/08/02 10:37:39;;;;;;;2.83;1.40;;;;;;;24.45;40.83;97784.94;8267743;28;20212;-92
2021/08/02 10:42:06;;;;;;;3.20;1.20;;;;;;;24.36;39.71;97778.78;8279027;28;20241;-93
2021/08/02 10:46:30;;;;;;;4.77;1.40;;;;;;;24.36;40.35;97778.78;8291526;28;20224;-93
2021/08/02 10:50:41;;;;;;;2.90;1.60;;;;;;;25.28;38.67;97761.09;8298834;28;20206;-93
2021/08/02 10:54:44;;;;;;;3.77;1.60;;;;;;;25.52;37.80;97762.09;8286106;28;20226;-93
2021/08/02 10:58:52;;;;;;;4.37;1.43;;;;;;;26.18;36.49;97746.00;8292265;28;20194;-89
2021/08/02 11:02:57;;;;;;;7.07;1.70;;;;;;;26.28;35.92;97752.78;8282776;28;20560;-94
2021/08/02 11:07:00;;;;;;;4.87;1.40;;;;;;;26.47;35.18;97756.00;8275377;28;20303;-93
2021/08/02 11:11:05;;;;;;;2.57;1.50;;;;;;;26.84;35.28;97741.19;8280859;28;20206;-93
2021/08/02 11:15:11;;;;;;;2.93;1.30;;;;;;;25.85;35.63;97738.97;8279933;28;20276;-95
2021/08/02 11:19:20;;;;;;;3.67;1.20;;;;;;;26.04;35.91;97745.72;8273878;28;20402;-90
2021/08/02 11:23:34;;;;;;;2.77;1.40;;;;;;;26.14;35.70;97738.41;8260531;28;20239;-90
2021/08/02 11:27:37;;;;;;;4.37;1.67;;;;;;;25.44;37.16;97725.81;8286209;28;20200;-91
2021/08/02 11:31:42;;;;;;;3.57;1.30;;;;;;;24.70;38.37;97724.97;8292831;28;20428;-91
2021/08/02 11:35:46;;;;;;;3.60;1.50;;;;;;;24.21;38.90;97728.28;8292181;28;20202;-95
2021/08/02 11:39:59;;;;;;;4.40;1.33;;;;;;;24.02;39.67;97728.53;8297210;28;20207;-92
2021/08/02 11:44:04;;;;;;;5.60;1.57;;;;;;;24.08;41.95;97730.53;8296702;28;20236;-91
2021/08/02 11:48:12;;;;;;;2.20;1.20;;;;;;;24.84;39.72;97723.47;8292687;28;20218;-92
2021/08/02 11:52:18;;;;;;;2.53;1.33;;;;;;;24.36;40.52;97716.09;8293645;28;20205;-91
2021/08/02 11:56:31;;;;;;;2.80;1.60;;;;;;;24.02;39.64;97729.38;8292098;28;20204;-90
2021/08/02 12:00:35;;;;;;;2.80;1.13;;;;;;;23.71;40.94;97729.84;8291069;28;20225;-94
2021/08/02 12:04:43;;;;;;;2.53;1.70;;;;;;;23.75;41.85;97731.19;8294484;28;20221;-93
2021/08/02 12:08:51;;;;;;;2.17;1.40;;;;;;;23.64;41.43;97722.69;8289152;28;20208;-91
2021/08/02 12:12:58;;;;;;;2.67;1.40;;;;;;;23.90;41.75;97734.09;8276724;28;20210;-93
2021/08/02 12:17:05;;;;;;;3.47;1.50;;;;;;;25.45;40.38;97729.28;8275068;28;20208;-91
2021/08/02 12:21:17;;;;;;;3.23;1.60;;;;;;;24.79;41.09;97721.34;8273689;28;20229;-94
2021/08/02 12:25:19;;;;;;;2.90;1.30;;;;;;;24.49;41.39;97714.81;8274861;28;20240;-92
2021/08/02 12:29:24;;;;;;;6.73;1.80;;;;;;;24.11;43.18;97728.41;8284424;28;20226;-94
2021/08/02 12:33:27;;;;;;;25.93;2.47;;;;;;;23.73;44.49;97727.06;8287879;28;20202;-93
2021/08/02 12:37:32;;;;;;;10.93;2.03;;;;;;;23.40;45.47;97732.97;8291959;28;20225;-93
2021/08/02 12:41:38;;;;;;;4.27;1.60;;;;;;;22.84;49.72;97749.97;8265885;28;20225;-85
2021/08/02 12:45:59;;;;;;;22.27;3.33;;;;;;;22.63;52.94;97758.19;8264637;28;20524;-88
2021/08/02 12:50:04;;;;;;;7.93;2.10;;;;;;;22.52;54.55;97742.56;8263083;28;20209;-86
2021/08/02 12:54:09;;;;;;;3.90;1.40;;;;;;;22.79;55.08;97753.06;8264132;28;20516;-86
2021/08/02 12:58:13;;;;;;;7.53;1.70;;;;;;;22.28;57.06;97757.16;8274640;28;20431;-89
2021/08/02 13:02:16;;;;;;;10.13;2.00;;;;;;;21.95;56.38;97761.13;8278051;28;20284;-85
2021/08/02 13:06:21;;;;;;;4.23;1.20;;;;;;;21.43;54.58;97780.81;8278411;28;20237;-87
2021/08/02 13:10:28;;;;;;;12.10;1.87;;;;;;;21.12;55.74;97774.06;8279663;28;20243;-87
2021/08/02 13:14:32;;;;;;;3.10;1.40;;;;;;;21.00;55.84;97795.25;8312682;28;20256;-87
2021/08/02 13:18:35;;;;;;;6.63;1.70;;;;;;;20.82;56.52;97794.25;8302892;28;20209;-89
2021/08/02 13:22:49;;;;;;;5.93;1.87;;;;;;;20.68;56.33;97790.22;8256130;28;20258;-88
2021/08/02 13:26:56;;;;;;;6.10;1.47;;;;;;;20.73;56.41;97766.13;8264614;28;20213;-89
2021/08/02 13:31:00;;;;;;;4.60;1.20;;;;;;;21.02;56.63;97747.75;8288406;28;20517;-87
2021/08/02 13:35:03;;;;;;;2.53;1.00;;;;;;;21.25;56.30;97738.56;8296307;28;20207;-88
2021/08/02 13:39:07;;;;;;;3.37;1.10;;;;;;;21.39;55.82;97747.00;8297208;28;20198;-88
2021/08/02 13:43:12;;;;;;;5.07;1.13;;;;;;;21.29;55.97;97741.75;8295206;28;20234;-89
2021/08/02 13:47:15;;;;;;;2.37;0.93;;;;;;;21.50;57.19;97735.50;8294542;28;20273;-88
2021/08/02 13:51:20;;;;;;;2.70;1.00;;;;;;;21.51;57.03;97737.16;8295264;28;20204;-89
2021/08/02 13:55:26;;;;;;;2.30;1.10;;;;;;;21.50;56.32;97746.03;8294092;28;20208;-88
2021/08/02 13:59:43;;;;;;;2.00;1.00;;;;;;;21.43;56.21;97743.09;8296926;28;20209;-89
2021/08/02 14:03:48;;;;;;;2.43;1.30;;;;;;;21.47;53.92;97734.78;8300984;28;20240;-88
2021/08/02 14:07:56;;;;;;;2.47;1.00;;;;;;;21.56;52.99;97730.47;8297890;28;20206;-89
2021/08/02 14:12:01;;;;;;;4.43;1.13;;;;;;;22.50;55.03;97710.22;8297094;28;20210;-88
2021/08/02 14:20:40;;;;;;;2.60;1.10;;;;;;;23.34;48.55;97701.03;8297271;28;20501;-90
2021/08/02 14:24:53;;;;;;;2.40;1.00;;;;;;;23.28;51.14;97709.59;8300062;28;20236;-94
2021/08/02 14:29:04;;;;;;;2.77;1.07;;;;;;;23.35;52.38;97705.34;8297171;28;20217;-96
2021/08/02 14:33:20;;;;;;;2.30;1.20;;;;;;;23.62;49.29;97693.78;8270298;28;20248;-96
2021/08/02 14:37:26;;;;;;;2.27;1.10;;;;;;;23.12;51.54;97708.50;8270275;28;20295;-93
2021/08/02 14:41:37;;;;;;;1.73;1.10;;;;;;;23.25;50.98;97705.47;8287305;28;20229;-92
2021/08/02 14:45:43;;;;;;;2.90;1.07;;;;;;;23.68;52.68;97705.53;8291922;28;20373;-94
2021/08/02 14:49:54;;;;;;;1.57;1.10;;;;;;;24.09;51.24;97713.69;8280222;28;20206;-93
2021/08/02 14:54:00;;;;;;;3.77;1.30;;;;;;;23.96;52.38;97701.72;8284893;28;20201;-93
2021/08/02 14:58:06;;;;;;;3.50;1.20;;;;;;;24.18;53.73;97702.16;8280161;28;20225;-93
2021/08/02 15:02:11;;;;;;;3.00;1.60;;;;;;;24.25;50.37;97697.84;8283263;28;20231;-94
2021/08/02 15:06:20;;;;;;;2.13;1.60;;;;;;;24.19;50.41;97687.94;8283491;28;20213;-93
2021/08/02 15:10:27;;;;;;;2.60;1.40;;;;;;;24.16;48.69;97673.22;8277259;28;20203;-95
2021/08/02 15:14:35;;;;;;;2.67;1.30;;;;;;;24.40;48.52;97688.31;8281997;28;20213;-92
2021/08/02 15:18:43;;;;;;;3.47;1.10;;;;;;;23.84;47.87;97689.78;8276205;28;20206;-93
2021/08/02 15:23:03;;;;;;;3.27;1.03;;;;;;;23.53;48.22;97692.06;8278311;28;20234;-94
2021/08/02 15:27:12;;;;;;;1.73;1.17;;;;;;;23.50;47.18;97698.50;8278767;28;20202;-94
2021/08/02 15:31:25;;;;;;;3.93;1.10;;;;;;;23.43;48.17;97700.09;8281997;28;20205;-96
2021/08/02 15:35:32;;;;;;;2.47;1.10;;;;;;;23.06;47.31;97701.19;8284115;28;20215;-95
2021/08/02 15:39:40;;;;;;;4.10;1.07;;;;;;;23.06;46.73;97698.56;8281352;28;20233;-95
2021/08/02 15:43:49;;;;;;;3.13;1.20;;;;;;;23.13;47.50;97706.69;8283704;28;20229;-95
2021/08/02 15:47:57;;;;;;;2.13;1.20;;;;;;;23.01;48.46;97716.63;8286771;28;20198;-92
2021/08/02 15:52:06;;;;;;;1.40;1.00;;;;;;;22.75;46.92;97722.69;8288802;28;20198;-92
2021/08/02 15:56:14;;;;;;;1.60;0.90;;;;;;;22.64;46.11;97731.66;8284566;28;20217;-95
2021/08/02 16:00:19;;;;;;;2.33;0.90;;;;;;;22.56;47.20;97728.94;8285478;28;20206;-94
2021/08/02 16:04:29;;;;;;;1.77;0.90;;;;;;;22.55;47.72;97729.06;8280803;28;20235;-94
2021/08/02 16:08:42;;;;;;;1.83;0.93;;;;;;;22.47;47.67;97711.34;8264751;28;20200;-90
2021/08/02 16:12:48;;;;;;;1.03;0.90;;;;;;;22.37;45.80;97723.75;8283011;28;20273;-86
2021/08/02 16:16:51;;;;;;;2.10;0.80;;;;;;;22.36;46.53;97736.13;8297523;28;20273;-96
2021/08/02 16:20:56;;;;;;;2.27;0.80;;;;;;;22.59;45.54;97741.00;8290333;28;20202;-95
2021/08/02 16:24:59;;;;;;;0.70;0.70;;;;;;;22.54;45.18;97736.16;8278913;28;20244;-94
2021/08/02 16:29:05;;;;;;;0.53;0.50;;;;;;;22.48;45.41;97744.66;8268302;28;20214;-93
2021/08/02 16:33:08;;;;;;;0.60;0.43;;;;;;;22.41;44.71;97736.53;8269061;28;20205;-95
2021/08/02 16:37:11;;;;;;;1.00;0.73;;;;;;;22.14;45.04;97742.63;8292514;28;20393;-91
2021/08/02 16:41:16;;;;;;;1.23;0.80;;;;;;;21.78;46.14;97742.50;8312842;28;20200;-93
2021/08/02 16:45:21;;;;;;;0.90;0.80;;;;;;;21.66;47.41;97748.91;8313001;28;20228;-90
2021/08/02 16:49:24;;;;;;;2.20;0.90;;;;;;;21.53;48.31;97751.00;8306851;28;20229;-93
2021/08/02 16:53:27;;;;;;;2.20;1.00;;;;;;;21.51;48.14;97768.75;8290736;28;20205;-93
2021/08/02 16:57:31;;;;;;;2.17;0.90;;;;;;;21.36;49.31;97778.88;8269258;28;20405;-95
2021/08/02 17:01:36;;;;;;;3.50;0.90;;;;;;;21.43;49.80;97779.97;8270824;28;20215;-96
2021/08/02 17:05:40;;;;;;;1.67;0.90;;;;;;;21.38;50.21;97788.31;8273223;28;20415;-92
2021/08/02 17:09:43;;;;;;;1.27;0.80;;;;;;;21.38;50.18;97804.13;8302063;28;20190;-94
2021/08/02 17:13:47;;;;;;;2.17;1.10;;;;;;;21.03;51.47;97804.66;8309006;28;20203;-94
2021/08/02 17:17:51;;;;;;;1.10;0.90;;;;;;;21.03;50.74;97796.78;8330432;23;20240;-65
2021/08/02 17:21:54;;;;;;;2.83;1.10;;;;;;;20.89;51.18;97808.53;8342499;28;20483;-66
2021/08/02 17:25:57;;;;;;;1.50;1.00;;;;;;;20.79;51.63;97816.44;8353487;28;20209;-67
2021/08/02 17:30:01;;;;;;;1.87;0.83;;;;;;;20.58;52.12;97810.38;8353927;28;20202;-67
2021/08/02 17:34:06;;;;;;;3.47;0.80;;;;;;;20.62;51.30;97811.78;8353659;28;20212;-67
2021/08/02 17:38:10;;;;;;;0.80;0.70;;;;;;;20.81;51.37;97800.47;8353921;28;20263;-67
2021/08/02 17:42:13;;;;;;;1.07;0.97;;;;;;;20.73;51.70;97790.63;8353262;28;20235;-67
2021/08/02 17:46:15;;;;;;;1.43;0.90;;;;;;;20.98;51.29;97798.97;8353347;28;20203;-67
2021/08/02 17:50:20;;;;;;;3.20;1.50;;;;;;;21.11;51.54;97799.53;8353331;28;20202;-67
2021/08/02 17:54:24;;;;;;;1.70;1.30;;;;;;;20.91;52.14;97795.25;8353251;28;20235;-67
2021/08/02 17:58:27;;;;;;;1.33;1.10;;;;;;;21.05;52.34;97802.72;8352851;28;20517;-67
2021/08/02 18:02:31;;;;;;;2.10;1.17;;;;;;;21.12;52.19;97806.47;8353045;28;20291;-67
2021/08/02 18:06:37;;;;;;;5.77;1.50;;;;;;;21.21;53.12;97808.28;8348462;28;20490;-67
2021/08/02 18:10:42;;;;;;;1.67;0.90;;;;;;;21.12;51.95;97808.28;8319826;28;20211;-67
2021/08/02 18:14:46;;;;;;;6.00;1.40;;;;;;;21.14;52.90;97808.97;8319617;28;20415;-67
2021/08/02 18:18:49;;;;;;;3.93;1.23;;;;;;;21.03;53.23;97805.50;8319746;28;20292;-67
2021/08/02 18:22:54;;;;;;;1.40;1.10;;;;;;;21.11;52.62;97804.81;8348487;28;20239;-67
2021/08/02 18:26:57;;;;;;;5.90;1.50;;;;;;;21.12;52.57;97801.22;8352169;28;20202;-67
2021/08/02 18:31:00;;;;;;;4.47;1.40;;;;;;;21.17;53.75;97811.31;8352031;28;20363;-67
2021/08/02 18:35:03;;;;;;;1.47;0.90;;;;;;;21.15;52.51;97808.84;8351839;28;20273;-67
2021/08/02 18:39:08;;;;;;;4.27;1.20;;;;;;;21.14;53.22;97827.41;8351026;28;20200;-67
2021/08/02 18:43:10;;;;;;;1.97;1.20;;;;;;;21.06;53.31;97814.94;8308995;28;20222;-67
2021/08/02 18:47:13;;;;;;;4.03;1.60;;;;;;;21.06;53.77;97815.75;8304538;28;20211;-67
2021/08/02 18:51:16;;;;;;;1.33;1.07;;;;;;;20.85;54.07;97812.41;8318550;28;20202;-67
2021/08/02 18:55:21;;;;;;;8.63;1.70;;;;;;;20.61;54.64;97818.03;8318368;28;20228;-67
2021/08/02 18:59:24;;;;;;;3.17;1.37;;;;;;;20.52;55.23;97811.75;8318222;28;20202;-67
2021/08/02 19:03:26;;;;;;;4.73;1.17;;;;;;;20.41;55.56;97814.47;8318195;28;20237;-67
2021/08/02 19:07:32;;;;;;;1.83;1.00;;;;;;;20.43;56.03;97809.94;8310748;28;20202;-67
2021/08/02 19:11:39;;;;;;;3.90;1.30;;;;;;;20.36;55.93;97822.78;8285476;28;20204;-67
2021/08/02 19:15:45;;;;;;;1.53;1.20;;;;;;;20.30;56.05;97823.31;8285208;28;20244;-67
2021/08/02 19:19:49;;;;;;;2.13;0.97;;;;;;;20.29;56.17;97819.00;8293017;28;20203;-67
2021/08/02 19:23:53;;;;;;;3.60;1.30;;;;;;;20.18;56.93;97832.25;8350384;28;20557;-67
2021/08/02 19:27:58;;;;;;;2.67;1.40;;;;;;;20.15;56.84;97840.41;8342586;28;20213;-65
2021/08/02 19:32:01;;;;;;;3.63;1.67;;;;;;;20.11;56.50;97850.34;8300392;28;20333;-66
2021/08/02 19:36:05;;;;;;;2.30;1.30;;;;;;;20.10;57.08;97851.31;8300264;28;20201;-66
2021/08/02 19:40:10;;;;;;;4.83;1.10;;;;;;;20.01;57.07;97857.34;8300197;28;20197;-67
2021/08/02 19:44:19;;;;;;;4.40;1.30;;;;;;;19.93;57.80;97855.38;8300032;28;20502;-67
2021/08/02 19:48:22;;;;;;;3.53;1.37;;;;;;;19.93;57.41;97855.38;8299999;28;20256;-67